Ekofisk, Norway

3:56 PM CEST on October 20, 2014 (GMT +0200)
Ekofisk | Change Station
CLOSE
Current Station
Airport
Location: Ekofisk,
Elevation: 10 ft
Nearby Weather Stations

Elev 10 ft 56.55 °N, 3.25 °E | Updated 6 minutes ago

Scattered Clouds
Scattered Clouds
54 °F
Feels Like 54 °F
N
25
Wind Variable Wind from WSW

Today
High -- | Low -- °F
--% Chance of Precip.
Yesterday
High -- | Low -- °F
Precip. -- in
8:29 AM 6:33 PM
Waning Crescent, 11% visible
Pressure 29.71 in
Visibility 6.2 miles
Clouds Few 1000 ft
Scattered Clouds 1600 ft
Dew Point 50 °F
Humidity 88%
Rainfall 0.00 in
Snow Depth Not available.
UV 1 out of 12
Pollen Not available.
Air Quality Not available.
Flu Activity Not available.
METAR ENEK 201350Z 25022KT 9999 FEW010 SCT016 12/10 Q1006 W13/S4

More Conditions Fewer Conditions

Pressure 29.71 in
Visibility 6.2 miles
Clouds Few 1000 ft
Scattered Clouds 1600 ft
Dew Point 50 °F
Humidity 88%
Rainfall 0.00 in
Snow Depth Not available.
UV 1 out of 12
Pollen Not available.
Air Quality Not available.
Flu Activity Not available.
METAR ENEK 201350Z 25022KT 9999 FEW010 SCT016 12/10 Q1006 W13/S4

More Conditions Fewer Conditions

10-Day Weather Forecast

Almanac

Astronomy

Oct. 20, 2014 Rise Set
Actual Time 8:29 AM CEST 6:33 PM CEST
Civil Twilight 7:50 AM CEST 7:11 PM CEST
Nautical Twilight 7:07 AM CEST 7:55 PM CEST
Astronomical Twilight 6:23 AM CEST 8:39 PM CEST
Moon 4:26 AM CEST 5:19 PM CEST
Length of Visible Light 11h 20m
Length of Day
10h 03m
Tomorrow will be 4m 37s shorter.
Waning Crescent, 11% of the Moon is Illuminated
Today
Waning Crescent
Oct 23
New
Oct 30
First Quarter
Nov 6
Full
Nov 14
Last Quarter

Yesterday's Extremes

Country Highs Country Lows

Community

WunderPhotos

Upload Photos

1,763,382 photos uploaded!

Nearby

Snow Depth

Not available.

Earthquake Activity

City Distance Mag. Time & Date
No recent earthquake activity has been reported nearby.
Minimum magnitude displayed is 2.5.

Coastal Water Temperatures

Place Temperature
No Stations Reporting

Nearby Weather Stations